createdAt,value
2022-11-25T00:01:38.716Z,100.90
2022-11-25T00:04:07.511Z,117.37
2022-11-25T00:06:41.859Z,116.87
2022-11-25T00:09:11.859Z,270.70
2022-11-25T00:11:44.159Z,116.27
2022-11-25T00:14:16.056Z,132.73
2022-11-25T00:16:48.303Z,109.97
2022-11-25T00:19:18.050Z,108.50
2022-11-25T00:21:53.957Z,186.17
2022-11-25T00:24:22.502Z,173.77
2022-11-25T00:26:51.639Z,123.37
2022-11-25T00:29:22.851Z,126.53
2022-11-25T00:32:00.075Z,108.87
2022-11-25T00:34:29.336Z,114.10
2022-11-25T00:37:01.088Z,110.07
2022-11-25T00:39:32.880Z,102.87
2022-11-25T00:42:19.274Z,102.10
2022-11-25T00:44:47.996Z,112.97
2022-11-25T00:47:24.128Z,227.10
2022-11-25T00:49:53.476Z,122.53
2022-11-25T00:52:23.880Z,138.30
2022-11-25T00:54:52.202Z,109.60
2022-11-25T00:57:20.429Z,117.87
2022-11-25T00:59:48.711Z,136.53
2022-11-25T01:02:17.065Z,109.33
2022-11-25T01:04:45.471Z,114.63
2022-11-25T01:07:16.582Z,99.97
2022-11-25T01:09:45.958Z,150.73
2022-11-25T01:12:13.854Z,305.70
2022-11-25T01:14:41.497Z,117.63
2022-11-25T01:17:09.175Z,196.43
2022-11-25T01:19:39.929Z,137.07
2022-11-25T01:22:08.078Z,150.60
2022-11-25T01:24:36.391Z,141.57
2022-11-25T01:27:05.858Z,121.47
2022-11-25T01:29:33.972Z,161.97
2022-11-25T01:32:01.659Z,86.10
2022-11-25T01:34:31.982Z,77.53
2022-11-25T01:37:00.032Z,91.40
2022-11-25T01:39:32.413Z,129.17
2022-11-25T01:42:00.971Z,87.07
2022-11-25T01:44:31.051Z,81.83
2022-11-25T01:47:04.793Z,100.37
2022-11-25T01:49:35.316Z,179.93
2022-11-25T01:52:07.781Z,76.60
2022-11-25T01:54:39.092Z,158.77
2022-11-25T01:57:09.305Z,233.80
2022-11-25T01:59:42.668Z,80.77
2022-11-25T02:02:10.942Z,133.20
2022-11-25T02:04:40.190Z,92.93
2022-11-25T02:07:10.366Z,95.33
2022-11-25T02:09:39.438Z,79.23
2022-11-25T02:12:07.397Z,145.47
2022-11-25T02:14:35.661Z,88.23
2022-11-25T02:17:04.938Z,98.67
2022-11-25T02:19:40.806Z,85.43
2022-11-25T02:22:11.245Z,84.20
2022-11-25T02:24:44.108Z,73.80
2022-11-25T02:27:14.665Z,77.57
2022-11-25T02:29:44.224Z,88.00
2022-11-25T02:32:12.136Z,78.97
2022-11-25T02:34:47.580Z,84.47
2022-11-25T02:37:16.634Z,85.97
2022-11-25T02:39:44.508Z,88.20
2022-11-25T02:42:15.882Z,87.67
2022-11-25T02:44:46.409Z,112.73
2022-11-25T02:47:14.278Z,90.47
2022-11-25T02:49:41.967Z,102.53
2022-11-25T02:52:10.694Z,100.70
2022-11-25T02:54:38.494Z,84.57
2022-11-25T02:57:06.443Z,124.00
2022-11-25T02:59:38.428Z,109.83
2022-11-25T03:02:06.472Z,99.10
2022-11-25T03:04:34.500Z,88.77
2022-11-25T03:07:03.268Z,141.73
2022-11-25T03:09:31.149Z,114.57
2022-11-25T03:12:16.303Z,99.10
2022-11-25T03:14:45.365Z,120.23
2022-11-25T03:17:13.220Z,184.43
2022-11-25T03:19:41.076Z,115.87
2022-11-25T03:22:09.114Z,182.40
2022-11-25T03:24:37.138Z,152.57
2022-11-25T03:27:05.168Z,123.73
2022-11-25T03:29:33.273Z,169.73
2022-11-25T03:32:06.828Z,168.00
2022-11-25T03:34:38.013Z,178.77
2022-11-25T03:37:05.929Z,96.90
2022-11-25T03:39:34.229Z,182.00
2022-11-25T03:42:02.056Z,87.60
2022-11-25T03:44:30.276Z,141.80
2022-11-25T03:46:57.960Z,79.83
2022-11-25T03:49:26.976Z,106.73
2022-11-25T03:51:55.536Z,91.13
2022-11-25T03:54:23.419Z,89.63
2022-11-25T03:57:14.598Z,177.17
2022-11-25T03:59:42.549Z,100.80
2022-11-25T04:02:10.268Z,95.63
2022-11-25T04:04:39.631Z,92.10
2022-11-25T04:07:08.908Z,86.13
2022-11-25T04:09:37.104Z,82.83
2022-11-25T04:12:24.912Z,117.83
2022-11-25T04:14:56.318Z,83.60
2022-11-25T04:17:24.437Z,91.50
2022-11-25T04:19:53.896Z,96.73
2022-11-25T04:22:21.622Z,98.60
2022-11-25T04:24:50.624Z,117.17
2022-11-25T04:27:23.320Z,133.60
2022-11-25T04:29:52.365Z,80.27
2022-11-25T04:32:21.897Z,100.07
2022-11-25T04:34:50.278Z,77.33
2022-11-25T04:37:20.662Z,122.37
2022-11-25T04:39:49.352Z,119.10
2022-11-25T04:42:34.780Z,72.20
2022-11-25T04:45:22.458Z,104.23
2022-11-25T04:47:53.285Z,122.20
2022-11-25T04:50:23.376Z,84.17
2022-11-25T04:53:05.704Z,81.10
2022-11-25T04:55:34.352Z,74.53
2022-11-25T04:58:06.143Z,109.43
2022-11-25T05:00:35.006Z,87.27
2022-11-25T05:03:03.425Z,66.33
2022-11-25T05:05:33.032Z,61.67
2022-11-25T05:08:01.052Z,62.70
2022-11-25T05:10:30.522Z,56.10
2022-11-25T05:12:58.810Z,74.20
2022-11-25T05:15:26.776Z,81.80
2022-11-25T05:17:55.302Z,81.07
2022-11-25T05:20:38.559Z,63.50
2022-11-25T05:23:06.880Z,68.03
2022-11-25T05:25:35.971Z,70.87
2022-11-25T05:28:26.797Z,75.80
2022-11-25T05:30:54.810Z,125.03
2022-11-25T05:33:23.026Z,79.43
2022-11-25T05:35:57.744Z,103.83
2022-11-25T05:38:29.696Z,85.23
2022-11-25T05:41:02.693Z,85.37
2022-11-25T05:43:31.149Z,82.23
2022-11-25T05:46:00.587Z,66.63
2022-11-25T05:48:28.980Z,65.27
2022-11-25T05:51:00.382Z,77.23
2022-11-25T05:53:29.373Z,73.93
2022-11-25T05:55:58.053Z,67.33
2022-11-25T05:58:49.709Z,106.60
2022-11-25T06:01:18.071Z,63.60
2022-11-25T06:03:47.132Z,60.10
2022-11-25T06:06:16.682Z,57.37
2022-11-25T06:08:44.787Z,64.83
2022-11-25T06:11:14.141Z,67.27
2022-11-25T06:13:42.791Z,62.27
2022-11-25T06:16:13.287Z,76.20
2022-11-25T06:18:41.374Z,60.90
2022-11-25T06:21:10.975Z,65.43
2022-11-25T06:23:39.309Z,72.70
2022-11-25T06:26:07.998Z,68.77
2022-11-25T06:28:36.920Z,70.57
2022-11-25T06:31:08.799Z,78.13
2022-11-25T06:33:43.378Z,62.03
2022-11-25T06:36:16.866Z,73.67
2022-11-25T06:38:45.066Z,74.13
2022-11-25T06:41:12.839Z,72.37
2022-11-25T06:43:40.906Z,73.30
2022-11-25T06:46:09.504Z,87.53
2022-11-25T06:48:37.432Z,87.43
2022-11-25T06:51:08.197Z,88.93
2022-11-25T06:53:35.992Z,99.50
2022-11-25T06:56:05.030Z,97.50
2022-11-25T06:58:36.642Z,87.00
2022-11-25T07:01:05.938Z,94.87
2022-11-25T07:03:34.133Z,89.07
2022-11-25T07:06:01.801Z,102.40
2022-11-25T07:08:34.153Z,102.03
2022-11-25T07:11:06.541Z,115.63
2022-11-25T07:13:34.281Z,101.20
2022-11-25T07:16:03.043Z,119.33
2022-11-25T07:18:32.388Z,123.57
2022-11-25T07:21:05.008Z,162.67
2022-11-25T07:23:34.196Z,128.37
2022-11-25T07:26:05.557Z,114.50
2022-11-25T07:28:33.603Z,112.67
2022-11-25T07:31:23.165Z,110.73
2022-11-25T07:33:52.287Z,102.00
2022-11-25T07:36:20.325Z,100.87
2022-11-25T07:38:49.733Z,92.80
2022-11-25T07:41:18.360Z,94.80
2022-11-25T07:43:46.663Z,97.63
2022-11-25T07:46:22.009Z,116.17
2022-11-25T07:48:53.608Z,170.87
2022-11-25T07:51:22.667Z,218.73
2022-11-25T07:53:57.022Z,302.73
2022-11-25T07:56:25.276Z,195.67
2022-11-25T07:58:53.080Z,267.87
2022-11-25T08:01:21.321Z,195.33
2022-11-25T08:03:50.097Z,240.87
2022-11-25T08:06:18.842Z,230.27
2022-11-25T08:08:47.010Z,251.67
2022-11-25T08:11:17.211Z,245.53
2022-11-25T08:13:45.757Z,156.47
2022-11-25T08:16:14.581Z,299.43
2022-11-25T08:18:42.642Z,238.83
2022-11-25T08:21:12.052Z,198.80
2022-11-25T08:23:40.394Z,250.37
2022-11-25T08:26:08.954Z,180.57
2022-11-25T08:28:38.784Z,181.53
2022-11-25T08:31:07.875Z,107.53
2022-11-25T08:33:35.883Z,155.97
2022-11-25T08:36:03.548Z,144.77
2022-11-25T08:38:32.449Z,136.63
2022-11-25T08:41:00.234Z,169.07
2022-11-25T08:43:29.697Z,166.20
2022-11-25T08:45:59.221Z,131.47
2022-11-25T08:48:26.963Z,204.77
2022-11-25T08:50:55.351Z,130.63
2022-11-25T08:53:23.437Z,90.73
2022-11-25T08:55:51.175Z,106.87
2022-11-25T08:58:18.774Z,112.27
2022-11-25T09:00:49.107Z,128.13
2022-11-25T09:03:18.437Z,106.03
2022-11-25T09:05:46.565Z,104.70
2022-11-25T09:08:14.589Z,122.80
2022-11-25T09:10:43.462Z,101.73
2022-11-25T09:13:11.675Z,118.43
2022-11-25T09:15:41.047Z,143.67
2022-11-25T09:18:09.911Z,107.17
2022-11-25T09:20:40.659Z,112.77
2022-11-25T09:23:08.711Z,114.83
2022-11-25T09:25:36.690Z,114.97
2022-11-25T09:28:04.736Z,182.10
2022-11-25T09:30:33.142Z,94.63
2022-11-25T09:33:00.968Z,116.57
2022-11-25T09:35:28.776Z,69.47
2022-11-25T09:37:57.802Z,113.50
2022-11-25T09:40:31.288Z,102.57
2022-11-25T09:43:20.533Z,82.20
2022-11-25T09:46:09.535Z,70.50
2022-11-25T09:48:51.999Z,66.03
2022-11-25T09:51:21.236Z,72.27
2022-11-25T09:53:52.630Z,64.23
2022-11-25T09:56:25.652Z,54.70
2022-11-25T09:58:56.884Z,73.93
2022-11-25T10:01:26.544Z,76.57
2022-11-25T10:03:55.914Z,70.23
2022-11-25T10:06:27.765Z,70.80
2022-11-25T10:08:58.391Z,66.03
2022-11-25T10:11:29.839Z,68.57
2022-11-25T10:14:00.729Z,95.67
2022-11-25T10:16:51.226Z,69.70
2022-11-25T10:19:24.554Z,80.33
2022-11-25T10:21:55.342Z,61.70
2022-11-25T10:24:25.075Z,66.67
2022-11-25T10:26:56.131Z,65.80
2022-11-25T10:29:25.213Z,61.77
2022-11-25T10:31:56.935Z,72.03
2022-11-25T10:34:28.551Z,72.00
2022-11-25T10:36:56.985Z,53.90
2022-11-25T10:39:35.705Z,63.47
2022-11-25T10:42:07.331Z,57.93
2022-11-25T10:44:36.425Z,51.23
2022-11-25T10:47:16.832Z,59.60
2022-11-25T10:49:50.902Z,64.20
2022-11-25T10:52:21.831Z,59.00
2022-11-25T10:54:58.290Z,60.13
2022-11-25T10:57:28.911Z,57.83
2022-11-25T10:59:57.841Z,57.23
2022-11-25T11:02:26.374Z,63.90
2022-11-25T11:04:56.360Z,63.73
2022-11-25T11:07:24.582Z,66.20
2022-11-25T11:09:52.266Z,55.17
2022-11-25T11:12:23.611Z,61.10
2022-11-25T11:14:51.880Z,53.77
2022-11-25T11:17:31.891Z,56.20
2022-11-25T11:20:11.545Z,54.00
2022-11-25T11:22:46.710Z,51.30
2022-11-25T11:25:24.240Z,57.43
2022-11-25T11:27:53.483Z,57.33
2022-11-25T11:30:23.659Z,54.23
2022-11-25T11:32:56.637Z,52.93
2022-11-25T11:35:26.199Z,56.60
2022-11-25T11:37:55.438Z,60.40
2022-11-25T11:40:26.849Z,56.67
2022-11-25T11:43:01.611Z,55.87
2022-11-25T11:45:38.503Z,57.43
2022-11-25T11:48:10.819Z,52.33
2022-11-25T11:50:40.882Z,57.20
2022-11-25T11:53:12.475Z,62.07
2022-11-25T11:56:05.559Z,58.93
2022-11-25T11:58:42.378Z,57.63
2022-11-25T12:01:22.420Z,50.57
2022-11-25T12:03:56.696Z,51.57
2022-11-25T12:06:26.042Z,52.17
2022-11-25T12:08:56.447Z,63.57
2022-11-25T12:11:26.236Z,55.47
2022-11-25T12:14:01.217Z,53.77
2022-11-25T12:16:33.151Z,50.83
2022-11-25T12:19:04.030Z,52.20
2022-11-25T12:21:42.313Z,50.37
2022-11-25T12:24:15.334Z,48.37
2022-11-25T12:26:46.645Z,49.13
2022-11-25T12:29:19.040Z,49.63
2022-11-25T12:31:49.142Z,55.73
2022-11-25T12:34:21.539Z,54.07
2022-11-25T12:36:51.725Z,55.53
2022-11-25T12:39:23.042Z,58.13
2022-11-25T12:41:53.341Z,55.83
2022-11-25T12:44:23.858Z,59.57
2022-11-25T12:46:53.027Z,60.23
2022-11-25T12:49:22.474Z,49.50
2022-11-25T12:52:00.428Z,57.63
2022-11-25T12:54:37.961Z,63.93
2022-11-25T12:57:24.113Z,69.20
2022-11-25T13:00:32.957Z,62.93
2022-11-25T13:03:14.338Z,64.00
2022-11-25T13:05:57.392Z,65.63
2022-11-25T13:08:30.887Z,62.97
2022-11-25T13:11:17.843Z,64.93
2022-11-25T13:13:51.111Z,62.53
2022-11-25T13:16:21.592Z,55.43
2022-11-25T13:18:49.786Z,60.90
2022-11-25T13:21:18.267Z,63.87
2022-11-25T13:23:49.539Z,66.07
2022-11-25T13:26:37.559Z,70.27
2022-11-25T13:29:23.321Z,64.00
2022-11-25T13:31:59.277Z,70.83
2022-11-25T13:34:29.066Z,63.67
2022-11-25T13:36:57.588Z,73.23
2022-11-25T13:39:33.033Z,103.07
2022-11-25T13:42:02.429Z,78.93
2022-11-25T13:44:32.837Z,90.03
2022-11-25T13:47:22.061Z,91.53
2022-11-25T13:49:52.929Z,88.30
2022-11-25T13:52:33.514Z,70.70
2022-11-25T13:55:02.285Z,74.67
2022-11-25T13:57:31.288Z,89.57
2022-11-25T14:00:00.201Z,84.37
2022-11-25T14:02:38.149Z,88.60
2022-11-25T14:05:12.579Z,96.23
2022-11-25T14:07:47.191Z,85.53
2022-11-25T14:10:22.706Z,92.67
2022-11-25T14:13:00.203Z,91.23
2022-11-25T14:15:42.683Z,97.20
2022-11-25T14:18:37.083Z,116.23
2022-11-25T14:21:13.382Z,94.53
2022-11-25T14:23:59.971Z,79.97
2022-11-25T14:26:49.165Z,103.07
2022-11-25T14:29:20.527Z,93.13
2022-11-25T14:31:51.225Z,87.80
2022-11-25T14:34:23.712Z,102.67
2022-11-25T14:36:53.051Z,117.70
2022-11-25T14:39:24.330Z,109.27
2022-11-25T14:41:55.980Z,122.93
2022-11-25T14:44:25.499Z,150.17
2022-11-25T14:46:53.438Z,103.20
2022-11-25T14:52:11.719Z,87.20
2022-11-25T14:54:41.634Z,99.83
2022-11-25T14:57:09.394Z,116.57
2022-11-25T14:59:42.126Z,89.07
2022-11-25T15:02:24.348Z,101.07
2022-11-25T15:04:53.758Z,128.17
2022-11-25T15:07:27.857Z,92.90
2022-11-25T15:09:59.082Z,113.77
2022-11-25T15:12:29.914Z,99.77
2022-11-25T15:14:57.843Z,97.43
2022-11-25T15:17:28.150Z,107.83
2022-11-25T15:19:58.800Z,107.27
2022-11-25T15:22:26.430Z,108.23
2022-11-25T15:27:45.333Z,100.97
2022-11-25T15:30:20.128Z,95.80
2022-11-25T15:32:47.996Z,117.03
2022-11-25T15:35:22.620Z,102.60
2022-11-25T15:37:50.568Z,97.60
2022-11-25T15:40:36.557Z,122.87
2022-11-25T15:43:06.359Z,154.13
2022-11-25T15:45:38.786Z,101.70
2022-11-25T15:48:06.919Z,98.47
2022-11-25T15:50:36.163Z,94.37
2022-11-25T15:53:07.240Z,107.97
2022-11-25T15:55:36.630Z,101.30
2022-11-25T15:58:07.026Z,106.70
2022-11-25T16:00:35.367Z,121.47
2022-11-25T16:03:06.958Z,99.07
2022-11-25T16:05:39.405Z,120.30
2022-11-25T16:08:25.297Z,101.67
2022-11-25T16:10:54.686Z,105.07
2022-11-25T16:13:33.295Z,106.70
2022-11-25T16:16:12.036Z,98.63
2022-11-25T16:18:42.949Z,108.23
2022-11-25T16:21:13.283Z,106.43
2022-11-25T16:23:42.707Z,86.93
2022-11-25T16:26:15.640Z,98.67
2022-11-25T16:28:50.525Z,85.60
2022-11-25T16:31:19.067Z,101.67
2022-11-25T16:33:46.874Z,77.10
2022-11-25T16:36:16.257Z,105.20
2022-11-25T16:38:44.013Z,100.30
2022-11-25T16:41:18.150Z,97.90
2022-11-25T16:43:46.229Z,72.63
2022-11-25T16:46:16.067Z,89.30
2022-11-25T16:48:43.788Z,79.63
2022-11-25T16:51:15.012Z,86.60
2022-11-25T16:53:44.548Z,81.57
2022-11-25T16:56:13.982Z,99.00
2022-11-25T16:58:43.149Z,94.83
2022-11-25T17:01:13.558Z,96.00
2022-11-25T17:03:41.509Z,78.57
2022-11-25T17:06:21.706Z,95.37
2022-11-25T17:08:51.752Z,102.30
2022-11-25T17:11:22.330Z,93.37
2022-11-25T17:13:51.378Z,89.43
2022-11-25T17:16:20.699Z,97.77
2022-11-25T17:18:49.003Z,91.90
2022-11-25T17:21:17.367Z,91.67
2022-11-25T17:23:46.186Z,97.07
2022-11-25T17:26:18.545Z,85.00
2022-11-25T17:28:50.681Z,78.30
2022-11-25T17:31:18.617Z,81.03
2022-11-25T17:33:47.622Z,92.73
2022-11-25T17:36:15.317Z,84.63
2022-11-25T17:38:42.961Z,88.63
2022-11-25T17:41:13.086Z,96.87
2022-11-25T17:43:42.901Z,99.03
2022-11-25T17:46:12.090Z,88.70
2022-11-25T17:48:42.239Z,88.73
2022-11-25T17:51:10.404Z,89.93
2022-11-25T17:53:39.515Z,91.60
2022-11-25T17:56:14.135Z,110.77
2022-11-25T17:58:43.439Z,95.43
2022-11-25T18:01:11.161Z,87.37
2022-11-25T18:03:38.922Z,91.30
2022-11-25T18:06:06.995Z,115.57
2022-11-25T18:08:35.010Z,83.83
2022-11-25T18:11:04.018Z,114.23
2022-11-25T18:13:33.380Z,97.30
2022-11-25T18:16:02.649Z,77.73
2022-11-25T18:18:30.505Z,101.10
2022-11-25T18:20:58.130Z,133.17
2022-11-25T18:23:25.972Z,86.03
2022-11-25T18:25:53.851Z,107.63
2022-11-25T18:28:24.168Z,102.53
2022-11-25T18:30:54.478Z,119.97
2022-11-25T18:33:23.572Z,90.23
2022-11-25T18:35:51.295Z,109.40
2022-11-25T18:38:20.823Z,105.03
2022-11-25T18:40:53.196Z,90.30
2022-11-25T18:43:23.206Z,101.63
2022-11-25T18:45:51.238Z,83.07
2022-11-25T18:48:20.408Z,117.37
2022-11-25T18:50:52.352Z,106.40
2022-11-25T18:53:21.308Z,122.53
2022-11-25T18:55:50.755Z,97.27
2022-11-25T18:58:20.431Z,107.03
2022-11-25T19:00:49.535Z,92.60
2022-11-25T19:03:19.142Z,82.47
2022-11-25T19:05:47.107Z,85.37
2022-11-25T19:08:16.246Z,95.73
2022-11-25T19:10:45.527Z,110.73
2022-11-25T19:13:16.004Z,101.73
2022-11-25T19:15:45.416Z,121.00
2022-11-25T19:18:14.802Z,106.20
2022-11-25T19:20:42.659Z,101.70
2022-11-25T19:23:17.886Z,111.77
2022-11-25T19:25:46.326Z,118.87
2022-11-25T19:28:14.570Z,139.77
2022-11-25T19:30:42.910Z,218.33
2022-11-25T19:33:14.338Z,134.70
2022-11-25T19:35:42.240Z,197.83
2022-11-25T19:38:14.578Z,160.67
2022-11-25T19:40:44.090Z,195.33
2022-11-25T19:43:12.075Z,153.20
2022-11-25T19:45:40.049Z,113.57
2022-11-25T19:48:09.015Z,149.70
2022-11-25T19:50:38.586Z,139.73
2022-11-25T19:53:06.663Z,168.80
2022-11-25T19:55:34.336Z,118.67
2022-11-25T19:58:03.536Z,143.43
2022-11-25T20:00:31.185Z,131.13
2022-11-25T20:02:59.346Z,134.37
2022-11-25T20:05:28.714Z,139.90
2022-11-25T20:07:56.677Z,136.80
2022-11-25T20:10:25.209Z,146.53
2022-11-25T20:12:53.328Z,173.03
2022-11-25T20:15:22.749Z,169.50
2022-11-25T20:17:51.992Z,145.13
2022-11-25T20:20:23.233Z,136.00
2022-11-25T20:22:56.037Z,150.03
2022-11-25T20:25:23.897Z,117.63
2022-11-25T20:27:51.631Z,133.00
2022-11-25T20:30:20.203Z,156.50
2022-11-25T20:32:49.442Z,133.33
2022-11-25T20:35:17.246Z,127.90
2022-11-25T20:38:00.293Z,122.33
2022-11-25T20:40:33.460Z,106.57
2022-11-25T20:43:01.224Z,116.17
2022-11-25T20:45:29.714Z,102.77
2022-11-25T20:47:59.136Z,121.57
2022-11-25T20:50:29.979Z,108.23
2022-11-25T20:52:57.671Z,108.47
2022-11-25T20:55:25.821Z,129.50
2022-11-25T20:57:54.091Z,111.27
2022-11-25T21:00:23.226Z,106.20
2022-11-25T21:02:51.506Z,109.10
2022-11-25T21:05:20.877Z,95.40
2022-11-25T21:07:49.578Z,113.33
2022-11-25T21:10:22.025Z,98.20
2022-11-25T21:12:49.675Z,110.37
2022-11-25T21:15:18.402Z,91.33
2022-11-25T21:17:46.694Z,94.10
2022-11-25T21:20:15.028Z,89.47
2022-11-25T21:22:45.890Z,88.40
2022-11-25T21:25:14.765Z,101.53
2022-11-25T21:27:42.503Z,95.00
2022-11-25T21:30:17.733Z,101.10
2022-11-25T21:32:45.857Z,120.27
2022-11-25T21:35:13.597Z,104.13
2022-11-25T21:37:43.314Z,100.67
2022-11-25T21:40:22.110Z,101.33
2022-11-25T21:42:50.025Z,98.13
2022-11-25T21:45:18.287Z,101.73
2022-11-25T21:47:46.081Z,129.03
2022-11-25T21:50:15.093Z,109.97
2022-11-25T21:52:42.810Z,90.47
2022-11-25T21:55:12.239Z,88.83
2022-11-25T21:57:42.022Z,102.43
2022-11-25T22:00:19.777Z,102.17
2022-11-25T22:02:47.778Z,106.20
2022-11-25T22:05:16.382Z,96.27
2022-11-25T22:07:44.864Z,99.00
2022-11-25T22:10:13.420Z,104.40
2022-11-25T22:12:43.698Z,84.13
2022-11-25T22:15:14.591Z,81.73
2022-11-25T22:17:42.484Z,94.90
2022-11-25T22:20:22.332Z,87.27
2022-11-25T22:22:50.220Z,81.57
2022-11-25T22:25:18.330Z,89.90
2022-11-25T22:27:48.681Z,89.07
2022-11-25T22:30:17.398Z,79.70
2022-11-25T22:32:45.328Z,91.57
2022-11-25T22:35:17.442Z,92.10
2022-11-25T22:37:48.284Z,92.17
2022-11-25T22:40:18.736Z,120.97
2022-11-25T22:42:49.802Z,81.00
2022-11-25T22:45:20.159Z,76.70
2022-11-25T22:47:48.556Z,98.47
2022-11-25T22:50:20.254Z,83.53
2022-11-25T22:52:49.824Z,93.20
2022-11-25T22:55:19.200Z,97.73
2022-11-25T22:57:48.817Z,96.10
2022-11-25T23:00:19.058Z,81.87
2022-11-25T23:02:47.335Z,89.37
2022-11-25T23:05:16.670Z,82.13
2022-11-25T23:07:44.490Z,70.60
2022-11-25T23:10:16.555Z,88.07
2022-11-25T23:12:44.408Z,77.93
2022-11-25T23:15:17.596Z,69.40
2022-11-25T23:17:48.138Z,67.67
2022-11-25T23:20:17.647Z,55.43
2022-11-25T23:22:45.364Z,62.20
2022-11-25T23:25:14.670Z,68.77
2022-11-25T23:27:42.929Z,71.70
2022-11-25T23:30:21.472Z,65.57
2022-11-25T23:32:50.074Z,75.03
2022-11-25T23:35:40.118Z,94.83
2022-11-25T23:38:08.594Z,81.10
2022-11-25T23:40:36.178Z,77.50
2022-11-25T23:43:03.819Z,83.67
2022-11-25T23:45:32.947Z,98.07
2022-11-25T23:48:00.734Z,96.53
2022-11-25T23:50:29.906Z,100.33
2022-11-25T23:53:00.860Z,119.27
2022-11-25T23:55:40.808Z,115.90
2022-11-25T23:58:14.020Z,98.63
